sensor_id;sensor_type;location;lat;lon;timestamp;P1;durP1;ratioP1;P2;durP2;ratioP2
46216;SDS011;47258;59.424;13.482;2023-07-16T00:01:56;6.90;;;5.60;;
46216;SDS011;47258;59.424;13.482;2023-07-16T00:04:23;5.95;;;5.35;;
46216;SDS011;47258;59.424;13.482;2023-07-16T00:06:50;6.75;;;5.43;;
46216;SDS011;47258;59.424;13.482;2023-07-16T00:09:17;6.80;;;4.97;;
46216;SDS011;47258;59.424;13.482;2023-07-16T00:11:46;7.25;;;5.50;;
46216;SDS011;47258;59.424;13.482;2023-07-16T00:14:13;5.10;;;4.57;;
46216;SDS011;47258;59.424;13.482;2023-07-16T00:16:40;8.80;;;5.00;;
46216;SDS011;47258;59.424;13.482;2023-07-16T00:19:09;5.80;;;5.00;;
46216;SDS011;47258;59.424;13.482;2023-07-16T00:21:36;9.50;;;5.28;;
46216;SDS011;47258;59.424;13.482;2023-07-16T00:24:04;8.23;;;5.05;;
46216;SDS011;47258;59.424;13.482;2023-07-16T00:26:31;6.97;;;4.60;;
46216;SDS011;47258;59.424;13.482;2023-07-16T00:29:00;7.72;;;5.65;;
46216;SDS011;47258;59.424;13.482;2023-07-16T00:31:27;8.50;;;5.07;;
46216;SDS011;47258;59.424;13.482;2023-07-16T00:33:54;6.00;;;4.70;;
46216;SDS011;47258;59.424;13.482;2023-07-16T00:36:21;8.93;;;6.30;;
46216;SDS011;47258;59.424;13.482;2023-07-16T00:38:48;9.38;;;5.28;;
46216;SDS011;47258;59.424;13.482;2023-07-16T00:41:15;6.47;;;5.47;;
46216;SDS011;47258;59.424;13.482;2023-07-16T00:43:42;11.55;;;5.93;;
46216;SDS011;47258;59.424;13.482;2023-07-16T00:46:11;7.38;;;5.85;;
46216;SDS011;47258;59.424;13.482;2023-07-16T00:48:39;14.77;;;6.55;;
46216;SDS011;47258;59.424;13.482;2023-07-16T00:51:07;7.28;;;5.32;;
46216;SDS011;47258;59.424;13.482;2023-07-16T00:53:34;11.10;;;6.60;;
46216;SDS011;47258;59.424;13.482;2023-07-16T00:56:02;10.25;;;6.47;;
46216;SDS011;47258;59.424;13.482;2023-07-16T00:58:29;11.18;;;6.63;;
46216;SDS011;47258;59.424;13.482;2023-07-16T01:00:56;11.50;;;6.75;;
46216;SDS011;47258;59.424;13.482;2023-07-16T01:03:24;7.35;;;6.10;;
46216;SDS011;47258;59.424;13.482;2023-07-16T01:05:55;11.82;;;6.60;;
46216;SDS011;47258;59.424;13.482;2023-07-16T01:08:27;12.20;;;6.80;;
46216;SDS011;47258;59.424;13.482;2023-07-16T01:10:58;9.48;;;6.38;;
46216;SDS011;47258;59.424;13.482;2023-07-16T01:13:27;8.25;;;6.90;;
46216;SDS011;47258;59.424;13.482;2023-07-16T01:15:55;10.15;;;6.78;;
46216;SDS011;47258;59.424;13.482;2023-07-16T01:18:22;14.02;;;6.55;;
46216;SDS011;47258;59.424;13.482;2023-07-16T01:20:50;10.02;;;7.30;;
46216;SDS011;47258;59.424;13.482;2023-07-16T01:23:27;7.90;;;6.80;;
46216;SDS011;47258;59.424;13.482;2023-07-16T01:26:32;10.93;;;6.30;;
46216;SDS011;47258;59.424;13.482;2023-07-16T01:32:08;9.23;;;6.55;;
46216;SDS011;47258;59.424;13.482;2023-07-16T01:37:04;11.52;;;7.93;;
46216;SDS011;47258;59.424;13.482;2023-07-16T01:39:32;10.38;;;6.05;;
46216;SDS011;47258;59.424;13.482;2023-07-16T01:41:59;12.45;;;5.60;;
46216;SDS011;47258;59.424;13.482;2023-07-16T01:44:26;9.25;;;6.25;;
46216;SDS011;47258;59.424;13.482;2023-07-16T01:46:59;10.27;;;5.50;;
46216;SDS011;47258;59.424;13.482;2023-07-16T01:52:00;6.57;;;6.00;;
46216;SDS011;47258;59.424;13.482;2023-07-16T01:54:28;11.52;;;7.60;;
46216;SDS011;47258;59.424;13.482;2023-07-16T01:56:55;8.15;;;6.90;;
46216;SDS011;47258;59.424;13.482;2023-07-16T01:59:22;11.98;;;7.43;;
46216;SDS011;47258;59.424;13.482;2023-07-16T02:01:49;8.20;;;7.45;;
46216;SDS011;47258;59.424;13.482;2023-07-16T02:04:18;12.20;;;6.82;;
46216;SDS011;47258;59.424;13.482;2023-07-16T02:06:45;9.25;;;7.13;;
46216;SDS011;47258;59.424;13.482;2023-07-16T02:09:13;8.20;;;7.38;;
46216;SDS011;47258;59.424;13.482;2023-07-16T02:11:40;7.65;;;6.28;;
46216;SDS011;47258;59.424;13.482;2023-07-16T02:14:07;8.27;;;6.78;;
46216;SDS011;47258;59.424;13.482;2023-07-16T02:16:35;7.30;;;6.18;;
46216;SDS011;47258;59.424;13.482;2023-07-16T02:19:02;13.57;;;6.32;;
46216;SDS011;47258;59.424;13.482;2023-07-16T02:21:30;7.07;;;6.35;;
46216;SDS011;47258;59.424;13.482;2023-07-16T02:23:58;8.80;;;6.25;;
46216;SDS011;47258;59.424;13.482;2023-07-16T02:26:25;13.10;;;6.55;;
46216;SDS011;47258;59.424;13.482;2023-07-16T02:28:52;7.63;;;6.85;;
46216;SDS011;47258;59.424;13.482;2023-07-16T02:31:19;7.50;;;6.05;;
46216;SDS011;47258;59.424;13.482;2023-07-16T02:33:46;11.38;;;6.28;;
46216;SDS011;47258;59.424;13.482;2023-07-16T02:36:13;9.65;;;5.78;;
46216;SDS011;47258;59.424;13.482;2023-07-16T02:38:41;6.70;;;6.10;;
46216;SDS011;47258;59.424;13.482;2023-07-16T02:41:08;10.02;;;6.80;;
46216;SDS011;47258;59.424;13.482;2023-07-16T02:43:36;7.82;;;7.03;;
46216;SDS011;47258;59.424;13.482;2023-07-16T02:51:14;8.93;;;6.45;;
46216;SDS011;47258;59.424;13.482;2023-07-16T02:53:43;11.00;;;6.97;;
46216;SDS011;47258;59.424;13.482;2023-07-16T02:56:10;9.38;;;6.47;;
46216;SDS011;47258;59.424;13.482;2023-07-16T02:58:37;8.13;;;6.00;;
46216;SDS011;47258;59.424;13.482;2023-07-16T03:01:04;6.57;;;5.93;;
46216;SDS011;47258;59.424;13.482;2023-07-16T03:03:31;6.20;;;5.60;;
46216;SDS011;47258;59.424;13.482;2023-07-16T03:05:58;6.70;;;6.05;;
46216;SDS011;47258;59.424;13.482;2023-07-16T03:08:25;10.13;;;6.78;;
46216;SDS011;47258;59.424;13.482;2023-07-16T03:10:56;7.72;;;6.00;;
46216;SDS011;47258;59.424;13.482;2023-07-16T03:13:23;11.57;;;6.78;;
46216;SDS011;47258;59.424;13.482;2023-07-16T03:15:50;10.50;;;5.65;;
46216;SDS011;47258;59.424;13.482;2023-07-16T03:18:17;12.07;;;5.88;;
46216;SDS011;47258;59.424;13.482;2023-07-16T03:20:45;8.23;;;6.10;;
46216;SDS011;47258;59.424;13.482;2023-07-16T03:23:12;9.85;;;5.57;;
46216;SDS011;47258;59.424;13.482;2023-07-16T03:25:39;6.20;;;5.25;;
46216;SDS011;47258;59.424;13.482;2023-07-16T03:28:07;8.23;;;5.97;;
46216;SDS011;47258;59.424;13.482;2023-07-16T03:30:34;8.18;;;6.07;;
46216;SDS011;47258;59.424;13.482;2023-07-16T03:33:02;7.22;;;6.55;;
46216;SDS011;47258;59.424;13.482;2023-07-16T03:35:30;8.38;;;5.78;;
46216;SDS011;47258;59.424;13.482;2023-07-16T03:37:57;12.00;;;6.60;;
46216;SDS011;47258;59.424;13.482;2023-07-16T03:40:25;13.27;;;6.28;;
46216;SDS011;47258;59.424;13.482;2023-07-16T03:42:52;9.45;;;5.15;;
46216;SDS011;47258;59.424;13.482;2023-07-16T03:45:21;6.40;;;5.75;;
46216;SDS011;47258;59.424;13.482;2023-07-16T03:47:48;10.85;;;6.00;;
46216;SDS011;47258;59.424;13.482;2023-07-16T03:50:15;6.25;;;5.55;;
46216;SDS011;47258;59.424;13.482;2023-07-16T03:52:43;6.55;;;5.70;;
46216;SDS011;47258;59.424;13.482;2023-07-16T03:55:10;5.80;;;5.20;;
46216;SDS011;47258;59.424;13.482;2023-07-16T03:57:37;10.75;;;5.15;;
46216;SDS011;47258;59.424;13.482;2023-07-16T04:00:05;11.23;;;6.32;;
46216;SDS011;47258;59.424;13.482;2023-07-16T04:05:02;8.52;;;5.47;;
46216;SDS011;47258;59.424;13.482;2023-07-16T04:07:30;18.02;;;6.60;;
46216;SDS011;47258;59.424;13.482;2023-07-16T04:09:57;8.57;;;6.32;;
46216;SDS011;47258;59.424;13.482;2023-07-16T04:12:24;8.07;;;5.78;;
46216;SDS011;47258;59.424;13.482;2023-07-16T04:14:53;6.80;;;5.43;;
46216;SDS011;47258;59.424;13.482;2023-07-16T04:17:22;6.65;;;5.03;;
46216;SDS011;47258;59.424;13.482;2023-07-16T04:19:50;9.20;;;4.95;;
46216;SDS011;47258;59.424;13.482;2023-07-16T04:22:18;10.55;;;5.43;;
46216;SDS011;47258;59.424;13.482;2023-07-16T04:24:45;9.93;;;5.63;;
46216;SDS011;47258;59.424;13.482;2023-07-16T04:27:12;8.52;;;5.93;;
46216;SDS011;47258;59.424;13.482;2023-07-16T04:29:39;9.00;;;6.00;;
46216;SDS011;47258;59.424;13.482;2023-07-16T04:32:06;7.85;;;5.55;;
46216;SDS011;47258;59.424;13.482;2023-07-16T04:34:33;14.30;;;5.55;;
46216;SDS011;47258;59.424;13.482;2023-07-16T04:37:02;5.47;;;4.50;;
46216;SDS011;47258;59.424;13.482;2023-07-16T04:39:29;11.43;;;6.05;;
46216;SDS011;47258;59.424;13.482;2023-07-16T04:41:56;8.13;;;6.40;;
46216;SDS011;47258;59.424;13.482;2023-07-16T04:44:23;9.82;;;6.95;;
46216;SDS011;47258;59.424;13.482;2023-07-16T04:46:50;11.05;;;7.03;;
46216;SDS011;47258;59.424;13.482;2023-07-16T04:49:17;15.13;;;7.10;;
46216;SDS011;47258;59.424;13.482;2023-07-16T04:51:44;16.27;;;9.55;;
46216;SDS011;47258;59.424;13.482;2023-07-16T04:54:12;13.63;;;9.52;;
46216;SDS011;47258;59.424;13.482;2023-07-16T04:56:39;20.45;;;12.07;;
46216;SDS011;47258;59.424;13.482;2023-07-16T04:59:07;16.58;;;10.63;;
46216;SDS011;47258;59.424;13.482;2023-07-16T05:01:34;16.73;;;11.20;;
46216;SDS011;47258;59.424;13.482;2023-07-16T05:04:01;14.23;;;11.52;;
46216;SDS011;47258;59.424;13.482;2023-07-16T05:06:28;12.93;;;10.90;;
46216;SDS011;47258;59.424;13.482;2023-07-16T05:08:55;14.20;;;11.23;;
46216;SDS011;47258;59.424;13.482;2023-07-16T05:11:23;11.75;;;10.15;;
46216;SDS011;47258;59.424;13.482;2023-07-16T05:13:50;10.88;;;8.30;;
46216;SDS011;47258;59.424;13.482;2023-07-16T05:16:18;8.65;;;7.13;;
46216;SDS011;47258;59.424;13.482;2023-07-16T05:18:45;10.13;;;7.85;;
46216;SDS011;47258;59.424;13.482;2023-07-16T05:21:12;9.07;;;8.27;;
46216;SDS011;47258;59.424;13.482;2023-07-16T05:23:39;20.83;;;8.25;;
46216;SDS011;47258;59.424;13.482;2023-07-16T05:26:06;12.73;;;8.35;;
46216;SDS011;47258;59.424;13.482;2023-07-16T05:28:35;12.85;;;9.40;;
46216;SDS011;47258;59.424;13.482;2023-07-16T05:31:02;11.90;;;8.73;;
46216;SDS011;47258;59.424;13.482;2023-07-16T05:33:30;10.38;;;7.30;;
46216;SDS011;47258;59.424;13.482;2023-07-16T05:35:57;8.93;;;8.02;;
46216;SDS011;47258;59.424;13.482;2023-07-16T05:38:24;8.93;;;7.70;;
46216;SDS011;47258;59.424;13.482;2023-07-16T05:40:51;10.30;;;7.20;;
46216;SDS011;47258;59.424;13.482;2023-07-16T05:43:18;11.82;;;7.30;;
46216;SDS011;47258;59.424;13.482;2023-07-16T05:45:48;9.07;;;7.57;;
46216;SDS011;47258;59.424;13.482;2023-07-16T05:50:43;10.73;;;7.80;;
46216;SDS011;47258;59.424;13.482;2023-07-16T05:53:10;11.33;;;9.47;;
46216;SDS011;47258;59.424;13.482;2023-07-16T05:55:39;12.13;;;9.18;;
46216;SDS011;47258;59.424;13.482;2023-07-16T05:58:06;14.70;;;8.65;;
46216;SDS011;47258;59.424;13.482;2023-07-16T06:00:33;11.82;;;7.90;;
46216;SDS011;47258;59.424;13.482;2023-07-16T06:03:03;18.83;;;9.95;;
46216;SDS011;47258;59.424;13.482;2023-07-16T06:05:30;8.10;;;7.15;;
46216;SDS011;47258;59.424;13.482;2023-07-16T06:07:59;13.73;;;8.23;;
46216;SDS011;47258;59.424;13.482;2023-07-16T06:10:26;9.48;;;6.63;;
46216;SDS011;47258;59.424;13.482;2023-07-16T06:12:53;9.65;;;7.45;;
46216;SDS011;47258;59.424;13.482;2023-07-16T06:15:20;7.20;;;6.43;;
46216;SDS011;47258;59.424;13.482;2023-07-16T06:17:48;19.02;;;7.05;;
46216;SDS011;47258;59.424;13.482;2023-07-16T06:20:16;9.02;;;7.03;;
46216;SDS011;47258;59.424;13.482;2023-07-16T06:22:43;11.05;;;6.65;;
46216;SDS011;47258;59.424;13.482;2023-07-16T06:25:10;7.80;;;7.03;;
46216;SDS011;47258;59.424;13.482;2023-07-16T06:27:38;11.55;;;7.63;;
46216;SDS011;47258;59.424;13.482;2023-07-16T06:30:05;7.50;;;6.38;;
46216;SDS011;47258;59.424;13.482;2023-07-16T06:32:33;7.97;;;6.78;;
46216;SDS011;47258;59.424;13.482;2023-07-16T06:35:00;6.45;;;5.85;;
46216;SDS011;47258;59.424;13.482;2023-07-16T06:37:29;11.45;;;6.22;;
46216;SDS011;47258;59.424;13.482;2023-07-16T06:39:56;10.93;;;6.20;;
46216;SDS011;47258;59.424;13.482;2023-07-16T06:42:23;7.07;;;6.35;;
46216;SDS011;47258;59.424;13.482;2023-07-16T06:44:50;10.00;;;7.65;;
46216;SDS011;47258;59.424;13.482;2023-07-16T06:47:17;8.48;;;7.68;;
46216;SDS011;47258;59.424;13.482;2023-07-16T06:49:44;11.20;;;8.75;;
46216;SDS011;47258;59.424;13.482;2023-07-16T06:52:18;13.18;;;7.57;;
46216;SDS011;47258;59.424;13.482;2023-07-16T06:54:47;7.13;;;6.45;;
46216;SDS011;47258;59.424;13.482;2023-07-16T06:57:14;8.17;;;7.00;;
46216;SDS011;47258;59.424;13.482;2023-07-16T06:59:41;6.75;;;5.93;;
46216;SDS011;47258;59.424;13.482;2023-07-16T07:02:08;7.63;;;6.47;;
46216;SDS011;47258;59.424;13.482;2023-07-16T07:04:35;10.25;;;6.57;;
46216;SDS011;47258;59.424;13.482;2023-07-16T07:07:02;6.65;;;5.80;;
46216;SDS011;47258;59.424;13.482;2023-07-16T07:09:30;5.45;;;4.95;;
46216;SDS011;47258;59.424;13.482;2023-07-16T07:11:58;9.32;;;5.38;;
46216;SDS011;47258;59.424;13.482;2023-07-16T07:14:25;6.32;;;5.35;;
46216;SDS011;47258;59.424;13.482;2023-07-16T07:16:52;6.88;;;5.47;;
46216;SDS011;47258;59.424;13.482;2023-07-16T07:19:20;5.40;;;4.80;;
46216;SDS011;47258;59.424;13.482;2023-07-16T07:21:47;6.15;;;4.55;;
46216;SDS011;47258;59.424;13.482;2023-07-16T07:24:14;4.38;;;3.80;;
46216;SDS011;47258;59.424;13.482;2023-07-16T07:26:41;3.92;;;3.63;;
46216;SDS011;47258;59.424;13.482;2023-07-16T07:29:09;3.83;;;3.38;;
46216;SDS011;47258;59.424;13.482;2023-07-16T07:31:36;5.32;;;3.10;;
46216;SDS011;47258;59.424;13.482;2023-07-16T07:34:03;4.75;;;3.42;;
46216;SDS011;47258;59.424;13.482;2023-07-16T07:36:30;6.22;;;4.82;;
46216;SDS011;47258;59.424;13.482;2023-07-16T07:38:57;4.90;;;4.05;;
46216;SDS011;47258;59.424;13.482;2023-07-16T07:41:24;4.90;;;4.50;;
46216;SDS011;47258;59.424;13.482;2023-07-16T07:43:51;5.93;;;3.65;;
46216;SDS011;47258;59.424;13.482;2023-07-16T07:46:20;20.52;;;4.43;;
46216;SDS011;47258;59.424;13.482;2023-07-16T07:48:47;5.75;;;3.10;;
46216;SDS011;47258;59.424;13.482;2023-07-16T07:51:14;4.60;;;3.95;;
46216;SDS011;47258;59.424;13.482;2023-07-16T07:53:41;5.60;;;3.97;;
46216;SDS011;47258;59.424;13.482;2023-07-16T07:56:08;4.60;;;3.33;;
46216;SDS011;47258;59.424;13.482;2023-07-16T07:58:35;5.25;;;3.75;;
46216;SDS011;47258;59.424;13.482;2023-07-16T08:01:05;4.45;;;3.35;;
46216;SDS011;47258;59.424;13.482;2023-07-16T08:03:34;4.82;;;3.33;;
46216;SDS011;47258;59.424;13.482;2023-07-16T08:06:01;3.70;;;3.40;;
46216;SDS011;47258;59.424;13.482;2023-07-16T08:08:28;13.23;;;3.47;;
46216;SDS011;47258;59.424;13.482;2023-07-16T08:10:55;5.10;;;2.97;;
46216;SDS011;47258;59.424;13.482;2023-07-16T08:13:22;4.38;;;2.92;;
46216;SDS011;47258;59.424;13.482;2023-07-16T08:15:50;2.55;;;2.33;;
46216;SDS011;47258;59.424;13.482;2023-07-16T08:18:17;6.78;;;3.65;;
46216;SDS011;47258;59.424;13.482;2023-07-16T08:20:45;7.53;;;3.47;;
46216;SDS011;47258;59.424;13.482;2023-07-16T08:23:13;4.72;;;2.75;;
46216;SDS011;47258;59.424;13.482;2023-07-16T08:25:40;4.68;;;3.15;;
46216;SDS011;47258;59.424;13.482;2023-07-16T08:28:07;3.85;;;2.95;;
46216;SDS011;47258;59.424;13.482;2023-07-16T08:30:35;5.00;;;3.28;;
46216;SDS011;47258;59.424;13.482;2023-07-16T08:33:02;4.10;;;3.42;;
46216;SDS011;47258;59.424;13.482;2023-07-16T08:35:29;5.25;;;3.55;;
46216;SDS011;47258;59.424;13.482;2023-07-16T08:37:57;4.47;;;2.72;;
46216;SDS011;47258;59.424;13.482;2023-07-16T08:40:26;2.88;;;2.30;;
46216;SDS011;47258;59.424;13.482;2023-07-16T08:42:53;2.40;;;1.75;;
46216;SDS011;47258;59.424;13.482;2023-07-16T08:45:22;6.97;;;2.75;;
46216;SDS011;47258;59.424;13.482;2023-07-16T08:47:51;2.97;;;2.17;;
46216;SDS011;47258;59.424;13.482;2023-07-16T08:50:20;4.75;;;2.63;;
46216;SDS011;47258;59.424;13.482;2023-07-16T08:52:49;5.88;;;3.15;;
46216;SDS011;47258;59.424;13.482;2023-07-16T08:55:17;4.47;;;2.03;;
46216;SDS011;47258;59.424;13.482;2023-07-16T08:57:45;2.40;;;2.20;;
46216;SDS011;47258;59.424;13.482;2023-07-16T09:00:12;9.35;;;3.30;;
46216;SDS011;47258;59.424;13.482;2023-07-16T09:02:40;2.47;;;2.28;;
46216;SDS011;47258;59.424;13.482;2023-07-16T09:05:08;2.58;;;2.22;;
46216;SDS011;47258;59.424;13.482;2023-07-16T09:07:36;11.05;;;2.85;;
46216;SDS011;47258;59.424;13.482;2023-07-16T09:10:04;3.58;;;2.70;;
46216;SDS011;47258;59.424;13.482;2023-07-16T09:12:33;3.60;;;2.60;;
46216;SDS011;47258;59.424;13.482;2023-07-16T09:15:01;5.47;;;2.53;;
46216;SDS011;47258;59.424;13.482;2023-07-16T09:17:28;4.55;;;2.58;;
46216;SDS011;47258;59.424;13.482;2023-07-16T09:19:55;3.65;;;2.63;;
46216;SDS011;47258;59.424;13.482;2023-07-16T09:22:22;5.88;;;2.67;;
46216;SDS011;47258;59.424;13.482;2023-07-16T09:24:49;8.10;;;3.50;;
46216;SDS011;47258;59.424;13.482;2023-07-16T09:27:16;7.30;;;3.00;;
46216;SDS011;47258;59.424;13.482;2023-07-16T09:29:45;4.07;;;3.67;;
46216;SDS011;47258;59.424;13.482;2023-07-16T09:32:12;7.53;;;3.50;;
46216;SDS011;47258;59.424;13.482;2023-07-16T09:34:39;8.18;;;3.28;;
46216;SDS011;47258;59.424;13.482;2023-07-16T09:37:07;5.90;;;3.15;;
46216;SDS011;47258;59.424;13.482;2023-07-16T09:39:34;3.53;;;2.85;;
46216;SDS011;47258;59.424;13.482;2023-07-16T09:44:31;7.00;;;3.35;;
46216;SDS011;47258;59.424;13.482;2023-07-16T09:47:00;7.07;;;3.85;;
46216;SDS011;47258;59.424;13.482;2023-07-16T09:49:27;5.57;;;3.58;;
46216;SDS011;47258;59.424;13.482;2023-07-16T09:51:55;9.65;;;3.60;;
46216;SDS011;47258;59.424;13.482;2023-07-16T09:54:24;9.43;;;4.18;;
46216;SDS011;47258;59.424;13.482;2023-07-16T09:56:54;11.07;;;3.75;;
46216;SDS011;47258;59.424;13.482;2023-07-16T09:59:25;6.93;;;2.75;;
46216;SDS011;47258;59.424;13.482;2023-07-16T10:01:55;12.70;;;4.90;;
46216;SDS011;47258;59.424;13.482;2023-07-16T10:04:24;9.50;;;4.07;;
46216;SDS011;47258;59.424;13.482;2023-07-16T10:06:51;4.07;;;2.70;;
46216;SDS011;47258;59.424;13.482;2023-07-16T10:09:32;6.60;;;3.30;;
46216;SDS011;47258;59.424;13.482;2023-07-16T10:12:13;7.53;;;3.53;;
46216;SDS011;47258;59.424;13.482;2023-07-16T10:14:43;10.63;;;3.63;;
46216;SDS011;47258;59.424;13.482;2023-07-16T10:17:14;8.68;;;3.65;;
46216;SDS011;47258;59.424;13.482;2023-07-16T10:19:47;7.57;;;3.42;;
46216;SDS011;47258;59.424;13.482;2023-07-16T10:22:30;6.90;;;2.30;;
46216;SDS011;47258;59.424;13.482;2023-07-16T10:24:59;6.93;;;2.60;;
46216;SDS011;47258;59.424;13.482;2023-07-16T10:27:27;3.67;;;2.58;;
46216;SDS011;47258;59.424;13.482;2023-07-16T10:29:54;8.55;;;3.28;;
46216;SDS011;47258;59.424;13.482;2023-07-16T10:32:22;6.60;;;2.40;;
46216;SDS011;47258;59.424;13.482;2023-07-16T10:34:54;8.07;;;2.83;;
46216;SDS011;47258;59.424;13.482;2023-07-16T10:37:22;10.13;;;3.08;;
46216;SDS011;47258;59.424;13.482;2023-07-16T10:39:50;9.20;;;4.38;;
46216;SDS011;47258;59.424;13.482;2023-07-16T10:42:19;7.53;;;3.23;;
46216;SDS011;47258;59.424;13.482;2023-07-16T10:44:48;8.52;;;2.88;;
46216;SDS011;47258;59.424;13.482;2023-07-16T10:47:19;7.38;;;2.25;;
46216;SDS011;47258;59.424;13.482;2023-07-16T10:49:48;9.68;;;2.60;;
46216;SDS011;47258;59.424;13.482;2023-07-16T10:52:18;7.27;;;2.33;;
46216;SDS011;47258;59.424;13.482;2023-07-16T10:54:46;7.38;;;2.25;;
46216;SDS011;47258;59.424;13.482;2023-07-16T10:57:13;5.32;;;1.73;;
46216;SDS011;47258;59.424;13.482;2023-07-16T10:59:42;6.53;;;2.10;;
46216;SDS011;47258;59.424;13.482;2023-07-16T11:02:11;4.43;;;1.40;;
46216;SDS011;47258;59.424;13.482;2023-07-16T11:04:39;13.73;;;2.20;;
46216;SDS011;47258;59.424;13.482;2023-07-16T11:07:07;5.28;;;2.05;;
46216;SDS011;47258;59.424;13.482;2023-07-16T11:09:41;3.67;;;1.65;;
46216;SDS011;47258;59.424;13.482;2023-07-16T11:12:09;7.65;;;1.83;;
46216;SDS011;47258;59.424;13.482;2023-07-16T11:14:38;5.32;;;1.88;;
46216;SDS011;47258;59.424;13.482;2023-07-16T11:17:05;7.95;;;2.10;;
46216;SDS011;47258;59.424;13.482;2023-07-16T11:19:34;10.57;;;2.47;;
46216;SDS011;47258;59.424;13.482;2023-07-16T11:24:42;20.33;;;3.75;;
46216;SDS011;47258;59.424;13.482;2023-07-16T11:27:14;5.68;;;2.63;;
46216;SDS011;47258;59.424;13.482;2023-07-16T11:29:45;15.00;;;3.28;;
46216;SDS011;47258;59.424;13.482;2023-07-16T11:32:13;13.68;;;3.67;;
46216;SDS011;47258;59.424;13.482;2023-07-16T11:34:51;8.98;;;3.38;;
46216;SDS011;47258;59.424;13.482;2023-07-16T11:37:19;7.90;;;1.92;;
46216;SDS011;47258;59.424;13.482;2023-07-16T11:39:48;8.50;;;1.85;;
46216;SDS011;47258;59.424;13.482;2023-07-16T11:42:18;4.57;;;1.83;;
46216;SDS011;47258;59.424;13.482;2023-07-16T11:44:50;8.40;;;1.90;;
46216;SDS011;47258;59.424;13.482;2023-07-16T11:47:17;6.65;;;2.58;;
46216;SDS011;47258;59.424;13.482;2023-07-16T11:49:44;6.85;;;2.03;;
46216;SDS011;47258;59.424;13.482;2023-07-16T11:52:11;14.82;;;3.17;;
46216;SDS011;47258;59.424;13.482;2023-07-16T11:54:38;6.38;;;2.70;;
46216;SDS011;47258;59.424;13.482;2023-07-16T11:57:07;11.50;;;3.30;;
46216;SDS011;47258;59.424;13.482;2023-07-16T11:59:34;10.27;;;2.85;;
46216;SDS011;47258;59.424;13.482;2023-07-16T12:02:01;7.35;;;3.10;;
46216;SDS011;47258;59.424;13.482;2023-07-16T12:04:29;8.70;;;3.00;;
46216;SDS011;47258;59.424;13.482;2023-07-16T12:06:56;6.90;;;2.85;;
46216;SDS011;47258;59.424;13.482;2023-07-16T12:09:23;12.60;;;3.00;;
46216;SDS011;47258;59.424;13.482;2023-07-16T12:11:50;12.88;;;5.03;;
46216;SDS011;47258;59.424;13.482;2023-07-16T12:14:18;13.20;;;3.03;;
46216;SDS011;47258;59.424;13.482;2023-07-16T12:16:45;15.27;;;3.05;;
46216;SDS011;47258;59.424;13.482;2023-07-16T12:19:12;15.95;;;4.07;;
46216;SDS011;47258;59.424;13.482;2023-07-16T12:21:40;8.98;;;3.00;;
46216;SDS011;47258;59.424;13.482;2023-07-16T12:24:07;15.15;;;4.43;;
46216;SDS011;47258;59.424;13.482;2023-07-16T12:26:34;10.85;;;4.82;;
46216;SDS011;47258;59.424;13.482;2023-07-16T12:29:02;18.70;;;4.53;;
46216;SDS011;47258;59.424;13.482;2023-07-16T12:31:31;8.20;;;3.53;;
46216;SDS011;47258;59.424;13.482;2023-07-16T12:33:58;10.77;;;3.23;;
46216;SDS011;47258;59.424;13.482;2023-07-16T12:36:27;9.00;;;3.92;;
46216;SDS011;47258;59.424;13.482;2023-07-16T12:38:54;12.20;;;4.32;;
46216;SDS011;47258;59.424;13.482;2023-07-16T12:41:21;6.88;;;3.33;;
46216;SDS011;47258;59.424;13.482;2023-07-16T12:43:48;11.32;;;4.20;;
46216;SDS011;47258;59.424;13.482;2023-07-16T12:46:15;10.45;;;3.85;;
46216;SDS011;47258;59.424;13.482;2023-07-16T12:48:44;9.13;;;3.72;;
46216;SDS011;47258;59.424;13.482;2023-07-16T12:51:11;17.92;;;5.32;;
46216;SDS011;47258;59.424;13.482;2023-07-16T12:53:38;11.57;;;4.30;;
46216;SDS011;47258;59.424;13.482;2023-07-16T12:56:05;12.93;;;5.03;;
46216;SDS011;47258;59.424;13.482;2023-07-16T12:58:32;15.90;;;5.70;;
46216;SDS011;47258;59.424;13.482;2023-07-16T13:00:59;13.18;;;5.13;;
46216;SDS011;47258;59.424;13.482;2023-07-16T13:03:26;14.50;;;4.88;;
46216;SDS011;47258;59.424;13.482;2023-07-16T13:05:55;17.65;;;6.18;;
46216;SDS011;47258;59.424;13.482;2023-07-16T13:08:22;11.27;;;4.78;;
46216;SDS011;47258;59.424;13.482;2023-07-16T13:10:49;11.57;;;4.22;;
46216;SDS011;47258;59.424;13.482;2023-07-16T13:13:16;17.33;;;5.75;;
46216;SDS011;47258;59.424;13.482;2023-07-16T13:15:43;13.20;;;4.78;;
46216;SDS011;47258;59.424;13.482;2023-07-16T13:18:10;8.88;;;4.43;;
46216;SDS011;47258;59.424;13.482;2023-07-16T13:20:38;9.70;;;3.97;;
46216;SDS011;47258;59.424;13.482;2023-07-16T13:23:06;7.68;;;3.47;;
46216;SDS011;47258;59.424;13.482;2023-07-16T13:25:34;13.52;;;4.50;;
46216;SDS011;47258;59.424;13.482;2023-07-16T13:28:03;10.60;;;4.35;;
46216;SDS011;47258;59.424;13.482;2023-07-16T13:30:30;13.07;;;4.57;;
46216;SDS011;47258;59.424;13.482;2023-07-16T13:32:58;13.52;;;4.68;;
46216;SDS011;47258;59.424;13.482;2023-07-16T13:35:26;10.45;;;5.13;;
46216;SDS011;47258;59.424;13.482;2023-07-16T13:37:53;12.95;;;4.45;;
46216;SDS011;47258;59.424;13.482;2023-07-16T13:40:21;9.50;;;4.80;;
46216;SDS011;47258;59.424;13.482;2023-07-16T13:42:49;10.57;;;4.80;;
46216;SDS011;47258;59.424;13.482;2023-07-16T13:45:16;7.32;;;3.58;;
46216;SDS011;47258;59.424;13.482;2023-07-16T13:47:43;10.70;;;4.68;;
46216;SDS011;47258;59.424;13.482;2023-07-16T13:50:10;9.45;;;5.30;;
46216;SDS011;47258;59.424;13.482;2023-07-16T13:52:37;12.60;;;5.40;;
46216;SDS011;47258;59.424;13.482;2023-07-16T13:55:04;8.88;;;4.00;;
46216;SDS011;47258;59.424;13.482;2023-07-16T13:57:33;20.30;;;5.25;;
46216;SDS011;47258;59.424;13.482;2023-07-16T14:00:00;16.67;;;5.00;;
46216;SDS011;47258;59.424;13.482;2023-07-16T14:02:29;13.02;;;6.13;;
46216;SDS011;47258;59.424;13.482;2023-07-16T14:04:56;10.80;;;5.30;;
46216;SDS011;47258;59.424;13.482;2023-07-16T14:07:23;9.75;;;5.00;;
46216;SDS011;47258;59.424;13.482;2023-07-16T14:09:50;12.35;;;5.10;;
46216;SDS011;47258;59.424;13.482;2023-07-16T14:12:17;9.52;;;4.25;;
46216;SDS011;47258;59.424;13.482;2023-07-16T14:14:45;16.40;;;4.60;;
46216;SDS011;47258;59.424;13.482;2023-07-16T14:17:12;14.30;;;5.30;;
46216;SDS011;47258;59.424;13.482;2023-07-16T14:19:40;8.73;;;5.07;;
46216;SDS011;47258;59.424;13.482;2023-07-16T14:22:07;13.15;;;6.43;;
46216;SDS011;47258;59.424;13.482;2023-07-16T14:24:36;8.32;;;5.03;;
46216;SDS011;47258;59.424;13.482;2023-07-16T14:27:05;13.25;;;5.40;;
46216;SDS011;47258;59.424;13.482;2023-07-16T14:29:33;14.90;;;4.17;;
46216;SDS011;47258;59.424;13.482;2023-07-16T14:32:01;18.35;;;5.78;;
46216;SDS011;47258;59.424;13.482;2023-07-16T14:34:29;14.02;;;5.85;;
46216;SDS011;47258;59.424;13.482;2023-07-16T14:36:56;6.65;;;4.97;;
46216;SDS011;47258;59.424;13.482;2023-07-16T14:39:23;9.45;;;5.13;;
46216;SDS011;47258;59.424;13.482;2023-07-16T14:41:50;13.98;;;5.32;;
46216;SDS011;47258;59.424;13.482;2023-07-16T14:44:17;11.52;;;4.53;;
46216;SDS011;47258;59.424;13.482;2023-07-16T14:46:44;8.35;;;3.95;;
46216;SDS011;47258;59.424;13.482;2023-07-16T14:49:13;10.75;;;4.28;;
46216;SDS011;47258;59.424;13.482;2023-07-16T14:51:40;10.25;;;4.13;;
46216;SDS011;47258;59.424;13.482;2023-07-16T14:54:07;5.88;;;3.30;;
46216;SDS011;47258;59.424;13.482;2023-07-16T14:56:35;8.25;;;3.47;;